createdAt,value
2018-03-19T00:00:27.364Z,96000.80
2018-03-19T00:02:55.726Z,95997.12
2018-03-19T00:05:25.921Z,95997.56
2018-03-19T00:07:54.267Z,95999.29
2018-03-19T00:10:22.607Z,96003.45
2018-03-19T00:12:50.919Z,96000.21
2018-03-19T00:15:19.298Z,95997.77
2018-03-19T00:20:22.093Z,95992.64
2018-03-19T00:22:50.399Z,95988.92
2018-03-19T00:25:18.949Z,95998.20
2018-03-19T00:27:47.293Z,95989.20
2018-03-19T00:30:27.777Z,95995.03
2018-03-19T00:32:56.840Z,95990.13
2018-03-19T00:35:25.161Z,95993.03
2018-03-19T00:37:53.675Z,95989.47
2018-03-19T00:40:22.117Z,95997.05
2018-03-19T00:42:51.343Z,95993.10
2018-03-19T00:45:21.758Z,95987.83
2018-03-19T00:47:54.212Z,95990.52
2018-03-19T00:50:22.613Z,95981.42
2018-03-19T00:52:52.844Z,95987.89
2018-03-19T00:55:25.865Z,95988.79
2018-03-19T00:57:55.881Z,96001.41
2018-03-19T01:00:24.464Z,95984.76
2018-03-19T01:02:52.943Z,95989.67
2018-03-19T01:05:22.565Z,95987.52
2018-03-19T01:07:52.653Z,95989.08
2018-03-19T01:10:21.095Z,95982.22
2018-03-19T01:12:49.409Z,95988.44
2018-03-19T01:15:17.928Z,95987.62
2018-03-19T01:17:46.298Z,95990.97
2018-03-19T01:20:16.455Z,95986.45
2018-03-19T01:22:45.673Z,95984.22
2018-03-19T01:25:17.460Z,95984.54
2018-03-19T01:27:47.892Z,95982.36
2018-03-19T01:30:17.178Z,95983.13
2018-03-19T01:32:45.774Z,95991.80
2018-03-19T01:35:14.964Z,95986.36
2018-03-19T01:37:43.341Z,95987.35
2018-03-19T01:40:11.684Z,95985.70
2018-03-19T01:42:40.054Z,95983.22
2018-03-19T01:45:08.393Z,95987.41
2018-03-19T01:47:38.511Z,95990.75
2018-03-19T01:50:07.905Z,95991.20
2018-03-19T01:52:48.089Z,95992.93
2018-03-19T01:55:17.270Z,95993.86
2018-03-19T01:57:45.607Z,95987.11
2018-03-19T02:00:14.127Z,95989.53
2018-03-19T02:02:42.497Z,95985.79
2018-03-19T02:05:10.819Z,95988.77
2018-03-19T02:07:39.346Z,95989.26
2018-03-19T02:10:07.678Z,95987.54
2018-03-19T02:12:36.756Z,96025.41
2018-03-19T02:15:05.105Z,95989.53
2018-03-19T02:17:33.452Z,95990.81
2018-03-19T02:20:01.753Z,95983.75
2018-03-19T02:22:35.102Z,95988.78
2018-03-19T02:25:03.423Z,95989.59
2018-03-19T02:27:31.771Z,95985.91
2018-03-19T02:30:00.138Z,95984.63
2018-03-19T02:32:28.478Z,95985.42
2018-03-19T02:34:56.859Z,95984.13
2018-03-19T02:37:25.141Z,95984.99
2018-03-19T02:39:53.507Z,95976.36
2018-03-19T02:42:23.624Z,95974.36
2018-03-19T02:44:52.787Z,95979.33
2018-03-19T02:47:22.964Z,95980.18
2018-03-19T02:49:51.332Z,95980.48
2018-03-19T02:52:19.720Z,95984.95
2018-03-19T02:54:48.092Z,95985.88
2018-03-19T02:57:19.075Z,95996.36
2018-03-19T02:59:49.267Z,95983.95
2018-03-19T03:02:17.810Z,95988.73
2018-03-19T03:04:49.187Z,95989.12
2018-03-19T03:07:17.842Z,95991.53
2018-03-19T03:09:46.231Z,95992.33
2018-03-19T03:12:14.525Z,95996.05
2018-03-19T03:14:42.858Z,95994.48
2018-03-19T03:17:13.932Z,95997.58
2018-03-19T03:19:42.370Z,96000.06
2018-03-19T03:22:10.702Z,95998.44
2018-03-19T03:24:39.026Z,96007.80
2018-03-19T03:27:07.576Z,95994.11
2018-03-19T03:29:35.975Z,95997.52
2018-03-19T03:32:04.362Z,95989.52
2018-03-19T03:34:33.566Z,95996.05
2018-03-19T03:37:02.619Z,95995.29
2018-03-19T03:39:31.125Z,95994.05
2018-03-19T03:41:59.676Z,95993.92
2018-03-19T03:44:29.997Z,95993.06
2018-03-19T03:46:59.217Z,95987.48
2018-03-19T03:49:27.588Z,95989.84
2018-03-19T03:51:55.906Z,95994.27
2018-03-19T03:54:24.278Z,95990.52
2018-03-19T03:56:53.659Z,95989.60
2018-03-19T03:59:21.952Z,95999.09
2018-03-19T04:01:50.321Z,95996.55
2018-03-19T04:04:19.476Z,96000.71
2018-03-19T04:06:48.287Z,95995.73
2018-03-19T04:09:16.602Z,95994.89
2018-03-19T04:11:44.920Z,95994.13
2018-03-19T04:14:13.362Z,95991.59
2018-03-19T04:16:42.565Z,95996.25
2018-03-19T04:19:10.926Z,95994.89
2018-03-19T04:21:41.476Z,95998.23
2018-03-19T04:24:12.687Z,95990.03
2018-03-19T04:26:41.084Z,95991.78
2018-03-19T04:29:09.402Z,95990.52
2018-03-19T04:31:39.395Z,95994.99
2018-03-19T04:34:08.499Z,95991.02
2018-03-19T04:36:36.844Z,95993.57
2018-03-19T04:39:05.132Z,95992.41
2018-03-19T04:41:33.485Z,95994.63
2018-03-19T04:44:01.926Z,95995.39
2018-03-19T04:46:30.306Z,95995.76
2018-03-19T04:48:58.646Z,96003.69
2018-03-19T04:51:27.121Z,96004.38
2018-03-19T04:53:55.442Z,96005.56
2018-03-19T04:56:24.106Z,96009.64
2018-03-19T04:58:52.468Z,96003.62
2018-03-19T05:01:24.862Z,96010.20
2018-03-19T05:03:53.232Z,96022.34
2018-03-19T05:06:21.570Z,96005.05
2018-03-19T05:08:50.020Z,96014.09
2018-03-19T05:11:18.381Z,96020.25
2018-03-19T05:13:48.476Z,96014.41
2018-03-19T05:16:16.859Z,96019.27
2018-03-19T05:18:45.174Z,96017.94
2018-03-19T05:21:13.564Z,96019.12
2018-03-19T05:23:41.921Z,96022.03
2018-03-19T05:26:10.482Z,96020.98
2018-03-19T05:28:38.860Z,96025.87
2018-03-19T05:31:07.276Z,96032.08
2018-03-19T05:33:37.628Z,96024.14
2018-03-19T05:36:05.962Z,96026.95
2018-03-19T05:38:34.426Z,96026.56
2018-03-19T05:41:02.863Z,96021.54
2018-03-19T05:43:32.945Z,96027.29
2018-03-19T05:46:01.297Z,96024.88
2018-03-19T05:48:31.264Z,96031.03
2018-03-19T05:50:59.603Z,96029.85
2018-03-19T05:53:29.647Z,96032.77
2018-03-19T05:55:58.101Z,96035.30
2018-03-19T05:58:26.479Z,96039.09
2018-03-19T06:00:55.145Z,96040.09
2018-03-19T06:03:23.479Z,96036.48
2018-03-19T06:05:51.834Z,96039.13
2018-03-19T06:08:20.270Z,96041.68
2018-03-19T06:10:48.930Z,96040.63
2018-03-19T06:13:17.789Z,96045.84
2018-03-19T06:15:46.175Z,96052.36
2018-03-19T06:18:14.622Z,96046.57
2018-03-19T06:20:42.993Z,96047.83
2018-03-19T06:23:11.353Z,96051.19
2018-03-19T06:25:39.733Z,96049.62
2018-03-19T06:28:08.144Z,96052.59
2018-03-19T06:30:36.453Z,96055.13
2018-03-19T06:33:04.943Z,96053.08
2018-03-19T06:35:33.321Z,96058.97
2018-03-19T06:38:02.181Z,96058.05
2018-03-19T06:40:32.539Z,96062.08
2018-03-19T06:43:01.038Z,96044.98
2018-03-19T06:45:29.419Z,96067.00
2018-03-19T06:47:57.767Z,96070.45
2018-03-19T06:50:27.026Z,96064.33
2018-03-19T06:52:55.315Z,96072.14
2018-03-19T06:55:26.878Z,96067.67
2018-03-19T06:57:55.256Z,96074.38
2018-03-19T07:00:25.539Z,96069.46
2018-03-19T07:02:55.588Z,96073.42
2018-03-19T07:05:24.171Z,96073.06
2018-03-19T07:07:52.527Z,96080.38
2018-03-19T07:10:22.529Z,96076.77
2018-03-19T07:12:50.953Z,96079.95
2018-03-19T07:15:20.920Z,96080.17
2018-03-19T07:17:49.343Z,96078.69
2018-03-19T07:20:17.711Z,96079.58
2018-03-19T07:22:46.053Z,96076.53
2018-03-19T07:25:14.399Z,96082.78
2018-03-19T07:27:42.870Z,96083.16
2018-03-19T07:30:11.284Z,96092.09
2018-03-19T07:32:39.614Z,96088.86
2018-03-19T07:35:09.016Z,96095.20
2018-03-19T07:37:37.301Z,96093.03
2018-03-19T07:40:08.126Z,96095.12
2018-03-19T07:42:40.380Z,96094.95
2018-03-19T07:45:08.757Z,96095.30
2018-03-19T07:47:37.831Z,96096.66
2018-03-19T07:50:08.364Z,96102.00
2018-03-19T07:52:36.866Z,96102.00
2018-03-19T07:55:05.343Z,96104.42
2018-03-19T07:57:35.608Z,96107.46
2018-03-19T08:00:06.447Z,96099.70
2018-03-19T08:02:37.497Z,96099.51
2018-03-19T08:05:06.030Z,96100.12
2018-03-19T08:07:34.351Z,96103.97
2018-03-19T08:10:02.676Z,96102.91
2018-03-19T08:12:30.986Z,96107.27
2018-03-19T08:15:01.108Z,96105.26
2018-03-19T08:17:29.643Z,96108.53
2018-03-19T08:19:57.981Z,96108.63
2018-03-19T08:22:27.238Z,96109.89
2018-03-19T08:24:55.587Z,96105.78
2018-03-19T08:27:23.976Z,96110.37
2018-03-19T08:29:54.139Z,96114.48
2018-03-19T08:32:22.736Z,96111.80
2018-03-19T08:34:51.102Z,96114.22
2018-03-19T08:37:21.199Z,96108.58
2018-03-19T08:39:49.578Z,96107.98
2018-03-19T08:42:17.920Z,96106.30
2018-03-19T08:44:46.262Z,96108.84
2018-03-19T08:47:14.583Z,96107.53
2018-03-19T08:49:43.084Z,96101.66
2018-03-19T08:52:11.417Z,96098.22
2018-03-19T08:54:39.737Z,96097.48
2018-03-19T08:57:08.066Z,96111.20
2018-03-19T08:59:36.439Z,96112.46
2018-03-19T09:02:07.594Z,96105.78
2018-03-19T09:04:38.717Z,96106.70
2018-03-19T09:07:09.710Z,96104.54
2018-03-19T09:09:38.253Z,96109.65
2018-03-19T09:12:10.189Z,96106.75
2018-03-19T09:14:47.779Z,96109.66
2018-03-19T09:17:19.677Z,96101.56
2018-03-19T09:19:49.060Z,96100.41
2018-03-19T09:22:18.380Z,96108.07
2018-03-19T09:24:53.204Z,96106.34
2018-03-19T09:27:22.706Z,96115.00
2018-03-19T09:29:51.080Z,96113.31
2018-03-19T09:32:19.474Z,96107.64
2018-03-19T09:34:47.872Z,96102.69
2018-03-19T09:37:21.396Z,96115.39
2018-03-19T09:39:51.627Z,96111.93
2018-03-19T09:42:19.938Z,96113.06
2018-03-19T09:44:48.302Z,96112.99
2018-03-19T09:47:17.338Z,96116.84
2018-03-19T09:49:45.721Z,96118.44
2018-03-19T09:52:14.203Z,96118.89
2018-03-19T09:54:42.600Z,96123.22
2018-03-19T09:57:12.767Z,96130.52
2018-03-19T09:59:41.155Z,96126.97
2018-03-19T10:02:09.470Z,96131.19
2018-03-19T10:04:38.315Z,96127.61
2018-03-19T10:07:06.618Z,96129.17
2018-03-19T10:09:35.054Z,96129.62
2018-03-19T10:12:03.505Z,96137.45
2018-03-19T10:14:32.060Z,96136.52
2018-03-19T10:17:00.406Z,96127.51
2018-03-19T10:19:28.926Z,96131.03
2018-03-19T10:21:59.112Z,96137.95
2018-03-19T10:24:27.478Z,96133.45
2018-03-19T10:26:58.438Z,96134.48
2018-03-19T10:29:26.802Z,96132.62
2018-03-19T10:31:55.120Z,96134.06
2018-03-19T10:34:23.480Z,96129.44
2018-03-19T10:36:51.808Z,96131.44
2018-03-19T10:39:20.110Z,96125.80
2018-03-19T10:41:48.806Z,96122.89
2018-03-19T10:44:17.117Z,96126.08
2018-03-19T10:46:45.419Z,96129.11
2018-03-19T10:49:13.771Z,96120.61
2018-03-19T10:51:42.078Z,96128.24
2018-03-19T10:54:10.526Z,96127.59
2018-03-19T10:56:40.645Z,96125.41
2018-03-19T10:59:10.016Z,96128.45
2018-03-19T11:01:43.399Z,96132.73
2018-03-19T11:04:14.281Z,96131.22
2018-03-19T11:20:31.433Z,96127.22
2018-03-19T11:23:00.667Z,96126.07
2018-03-19T11:25:29.120Z,96116.80
2018-03-19T11:27:57.441Z,96121.81
2018-03-19T11:30:25.827Z,96114.11
2018-03-19T11:32:55.172Z,96117.42
2018-03-19T11:35:25.674Z,96110.56
2018-03-19T11:37:56.366Z,96119.56
2018-03-19T11:40:24.654Z,96114.04
2018-03-19T11:42:53.279Z,96113.80
2018-03-19T11:45:21.656Z,96110.86
2018-03-19T11:47:52.219Z,96111.63
2018-03-19T11:50:20.738Z,96110.58
2018-03-19T11:52:49.931Z,96113.07
2018-03-19T11:55:18.423Z,96107.62
2018-03-19T11:57:49.362Z,96109.11
2018-03-19T12:00:19.528Z,96106.75
2018-03-19T12:02:47.920Z,96110.22
2018-03-19T12:05:16.397Z,96108.23
2018-03-19T12:07:45.526Z,96110.72
2018-03-19T12:10:14.579Z,96113.68
2018-03-19T12:12:44.638Z,96108.75
2018-03-19T12:15:15.608Z,96116.84
2018-03-19T12:17:44.177Z,96113.09
2018-03-19T12:20:12.739Z,96110.70
2018-03-19T12:22:41.107Z,96112.28
2018-03-19T12:25:09.488Z,96109.02
2018-03-19T12:27:37.811Z,96115.30
2018-03-19T12:30:06.179Z,96113.14
2018-03-19T12:32:34.544Z,96112.39
2018-03-19T12:35:03.115Z,96111.08
2018-03-19T12:37:32.253Z,96112.39
2018-03-19T12:40:00.617Z,96111.16
2018-03-19T12:42:28.978Z,96103.14
2018-03-19T12:44:57.670Z,96107.53
2018-03-19T12:47:26.187Z,96106.33
2018-03-19T12:49:54.580Z,96106.45
2018-03-19T12:52:22.936Z,96099.24
2018-03-19T12:54:52.137Z,96103.95
2018-03-19T12:57:20.658Z,96103.79
2018-03-19T12:59:50.225Z,96110.51
2018-03-19T13:02:18.560Z,96109.41
2018-03-19T13:04:46.926Z,96108.45
2018-03-19T13:07:16.312Z,96106.45
2018-03-19T13:09:44.646Z,96112.46
2018-03-19T13:12:13.000Z,96110.62
2018-03-19T13:14:41.367Z,96116.45
2018-03-19T13:17:09.740Z,96116.55
2018-03-19T13:19:38.130Z,96116.41
2018-03-19T13:22:06.509Z,96113.69
2018-03-19T13:24:38.429Z,96110.10
2018-03-19T13:27:08.069Z,96110.66
2018-03-19T13:29:37.224Z,96108.59
2018-03-19T13:32:05.544Z,96116.55
2018-03-19T13:34:35.279Z,96114.55
2018-03-19T13:37:05.340Z,96121.37
2018-03-19T13:39:33.833Z,96122.39
2018-03-19T13:42:02.295Z,96120.13
2018-03-19T13:44:30.835Z,96127.64
2018-03-19T13:47:00.029Z,96128.73
2018-03-19T13:49:28.429Z,96128.67
2018-03-19T13:51:56.849Z,96127.54
2018-03-19T13:54:27.757Z,96123.38
2018-03-19T13:56:56.145Z,96123.86
2018-03-19T13:59:26.190Z,96124.95
2018-03-19T14:01:54.553Z,96130.19
2018-03-19T14:04:22.979Z,96127.05
2018-03-19T14:06:51.981Z,96136.14
2018-03-19T14:09:20.382Z,96139.34
2018-03-19T14:11:49.584Z,96134.52
2018-03-19T14:14:18.992Z,96138.08
2018-03-19T14:16:47.375Z,96134.61
2018-03-19T14:19:15.734Z,96137.05
2018-03-19T14:21:44.048Z,96130.40
2018-03-19T14:24:12.341Z,96131.98
2018-03-19T14:26:40.693Z,96120.45
2018-03-19T14:29:08.997Z,96132.91
2018-03-19T14:31:37.325Z,96129.05
2018-03-19T14:34:06.465Z,96131.59
2018-03-19T14:36:34.882Z,96128.67
2018-03-19T14:39:03.284Z,96128.72
2018-03-19T14:41:31.583Z,96129.21
2018-03-19T14:43:59.999Z,96132.89
2018-03-19T14:46:29.084Z,96132.09
2018-03-19T14:48:59.215Z,96127.98
2018-03-19T14:51:27.674Z,96140.84
2018-03-19T14:53:56.230Z,96132.67
2018-03-19T14:56:26.323Z,96138.63
2018-03-19T14:58:54.709Z,96134.45
2018-03-19T15:01:23.097Z,96135.44
2018-03-19T15:03:51.392Z,96132.19
2018-03-19T15:06:19.752Z,96139.93
2018-03-19T15:08:48.171Z,96132.52
2018-03-19T15:11:16.545Z,96132.98
2018-03-19T15:13:44.971Z,96137.84
2018-03-19T15:16:13.339Z,96138.72
2018-03-19T15:18:41.675Z,96134.19
2018-03-19T15:21:10.079Z,96141.00
2018-03-19T15:23:40.531Z,96142.03
2018-03-19T15:26:09.823Z,96142.89
2018-03-19T15:28:38.351Z,96146.36
2018-03-19T15:31:06.725Z,96167.83
2018-03-19T15:33:35.059Z,96142.91
2018-03-19T15:36:03.385Z,96136.80
2018-03-19T15:38:31.752Z,96141.50
2018-03-19T15:41:00.106Z,96140.05
2018-03-19T15:43:28.575Z,96141.50
2018-03-19T15:45:57.021Z,96146.20
2018-03-19T15:48:25.457Z,96143.38
2018-03-19T15:50:54.541Z,96140.61
2018-03-19T15:53:22.860Z,96144.33
2018-03-19T15:55:51.162Z,96149.73
2018-03-19T15:58:19.523Z,96150.98
2018-03-19T16:00:47.882Z,96153.26
2018-03-19T16:03:16.333Z,96156.12
2018-03-19T16:05:45.407Z,96153.09
2018-03-19T16:08:15.343Z,96156.22
2018-03-19T16:10:43.674Z,96160.85
2018-03-19T16:13:12.074Z,96161.34
2018-03-19T16:15:40.421Z,96162.57
2018-03-19T16:18:09.555Z,96164.08
2018-03-19T16:20:38.117Z,96165.42
2018-03-19T16:23:06.468Z,96165.55
2018-03-19T16:25:34.813Z,96164.75
2018-03-19T16:28:03.147Z,96172.15
2018-03-19T16:30:31.510Z,96172.90
2018-03-19T16:32:59.820Z,96184.33
2018-03-19T16:35:28.279Z,96180.92
2018-03-19T16:37:56.782Z,96186.22
2018-03-19T16:40:25.093Z,96185.78
2018-03-19T16:42:53.489Z,96178.77
2018-03-19T16:45:22.562Z,96188.88
2018-03-19T16:47:50.892Z,96192.98
2018-03-19T16:50:19.257Z,96194.77
2018-03-19T16:52:49.436Z,96199.84
2018-03-19T16:55:17.813Z,96193.97
2018-03-19T16:57:48.687Z,96195.55
2018-03-19T17:00:17.133Z,96198.14
2018-03-19T17:02:45.481Z,96198.77
2018-03-19T17:05:15.602Z,96196.86
2018-03-19T17:07:43.959Z,96200.66
2018-03-19T17:10:12.366Z,96203.89
2018-03-19T17:12:40.810Z,96206.22
2018-03-19T17:15:09.286Z,96218.45
2018-03-19T17:17:38.799Z,96214.98
2018-03-19T17:20:07.151Z,96216.97
2018-03-19T17:22:37.253Z,96219.77
2018-03-19T17:25:05.626Z,96220.16
2018-03-19T17:27:33.990Z,96224.79
2018-03-19T17:30:03.449Z,96228.22
2018-03-19T17:32:33.526Z,96228.09
2018-03-19T17:35:02.097Z,96233.81
2018-03-19T17:37:31.423Z,96235.80
2018-03-19T17:39:59.931Z,96236.06
2018-03-19T17:42:28.306Z,96234.94
2018-03-19T17:44:58.404Z,96235.44
2018-03-19T17:47:26.953Z,96242.75
2018-03-19T17:49:56.173Z,96245.19
2018-03-19T17:52:24.606Z,96249.41
2018-03-19T17:54:55.397Z,96256.37
2018-03-19T17:57:23.805Z,96247.06
2018-03-19T17:59:54.496Z,96254.94
2018-03-19T18:02:24.659Z,96264.99
2018-03-19T18:04:53.037Z,96257.56
2018-03-19T18:07:23.222Z,96265.80
2018-03-19T18:09:53.420Z,96274.05
2018-03-19T18:12:21.869Z,96267.23
2018-03-19T18:14:50.332Z,96272.13
2018-03-19T18:17:18.687Z,96272.02
2018-03-19T18:19:47.082Z,96276.47
2018-03-19T18:22:15.451Z,96275.16
2018-03-19T18:24:44.155Z,96287.52
2018-03-19T18:27:12.607Z,96285.86
2018-03-19T18:29:42.894Z,96283.80
2018-03-19T18:32:14.511Z,96285.30
2018-03-19T18:34:42.888Z,96288.13
2018-03-19T18:37:11.975Z,96286.08
2018-03-19T18:39:40.301Z,96286.84
2018-03-19T18:42:08.748Z,96291.60
2018-03-19T18:44:37.230Z,96288.13
2018-03-19T18:47:06.544Z,96285.47
2018-03-19T18:49:34.878Z,96288.00
2018-03-19T18:52:05.884Z,96284.09
2018-03-19T18:54:34.990Z,96292.39
2018-03-19T18:57:03.591Z,96302.34
2018-03-19T18:59:34.267Z,96294.52
2018-03-19T19:02:03.379Z,96301.95
2018-03-19T19:04:31.842Z,96308.10
2018-03-19T19:07:00.207Z,96300.66
2018-03-19T19:09:28.578Z,96309.47
2018-03-19T19:11:56.940Z,96314.62
2018-03-19T19:14:25.296Z,96318.70
2018-03-19T19:16:53.665Z,96314.91
2018-03-19T19:19:22.096Z,96319.52
2018-03-19T19:21:50.634Z,96316.15
2018-03-19T19:24:20.777Z,96323.18
2018-03-19T19:26:49.764Z,96317.41
2018-03-19T19:29:18.183Z,96323.45
2018-03-19T19:31:46.841Z,96320.59
2018-03-19T19:34:15.205Z,96323.64
2018-03-19T19:36:43.683Z,96318.60
2018-03-19T19:39:11.988Z,96323.06
2018-03-19T19:41:40.384Z,96326.19
2018-03-19T19:44:09.978Z,96322.95
2018-03-19T19:46:38.482Z,96325.36
2018-03-19T19:49:08.533Z,96324.95
2018-03-19T19:51:36.879Z,96321.16
2018-03-19T19:54:05.251Z,96326.98
2018-03-19T19:56:34.395Z,96325.93
2018-03-19T19:59:05.591Z,96320.61
2018-03-19T20:01:33.977Z,96321.97
2018-03-19T20:04:02.286Z,96321.09
2018-03-19T20:06:30.676Z,96322.30
2018-03-19T20:08:59.217Z,96318.48
2018-03-19T20:11:27.596Z,96318.89
2018-03-19T20:13:55.911Z,96322.02
2018-03-19T20:16:24.275Z,96323.69
2018-03-19T20:18:52.742Z,96321.52
2018-03-19T20:21:21.143Z,96324.00
2018-03-19T20:23:49.520Z,96322.95
2018-03-19T20:26:19.606Z,96319.58
2018-03-19T20:28:48.726Z,96320.97
2018-03-19T20:31:17.086Z,96329.46
2018-03-19T20:33:45.499Z,96323.70
2018-03-19T20:36:14.126Z,96320.47
2018-03-19T20:38:42.501Z,96323.45
2018-03-19T20:41:10.926Z,96320.66
2018-03-19T20:43:41.228Z,96323.55
2018-03-19T20:46:13.675Z,96323.21
2018-03-19T20:48:42.434Z,96327.00
2018-03-19T20:51:10.895Z,96331.17
2018-03-19T20:53:39.248Z,96327.31
2018-03-19T20:56:09.370Z,96336.53
2018-03-19T20:58:37.907Z,96333.66
2018-03-19T21:01:06.989Z,96335.06
2018-03-19T21:03:35.485Z,96334.06
2018-03-19T21:06:05.432Z,96335.23
2018-03-19T21:08:33.891Z,96333.54
2018-03-19T21:11:02.375Z,96332.91
2018-03-19T21:13:30.754Z,96333.77
2018-03-19T21:16:01.290Z,96331.98
2018-03-19T21:18:29.743Z,96337.53
2018-03-19T21:20:58.098Z,96334.14
2018-03-19T21:23:26.441Z,96329.89
2018-03-19T21:25:54.912Z,96336.05
2018-03-19T21:28:23.491Z,96338.02
2018-03-19T21:30:52.904Z,96333.87
2018-03-19T21:33:21.239Z,96336.25
2018-03-19T21:35:49.557Z,96338.91
2018-03-19T21:38:17.878Z,96338.16
2018-03-19T21:40:46.233Z,96338.34
2018-03-19T21:43:14.581Z,96333.52
2018-03-19T21:45:42.943Z,96338.53
2018-03-19T21:48:11.253Z,96341.77
2018-03-19T21:50:39.590Z,96335.55
2018-03-19T21:53:07.870Z,96338.21
2018-03-19T21:55:36.239Z,96341.96
2018-03-19T21:58:04.593Z,96342.31
2018-03-19T22:00:34.737Z,96337.21
2018-03-19T22:03:05.267Z,96338.47
2018-03-19T22:05:39.397Z,96339.69
2018-03-19T22:08:12.000Z,96340.45
2018-03-19T22:10:42.180Z,96335.18
2018-03-19T22:13:10.838Z,96334.87
2018-03-19T22:15:43.491Z,96335.13
2018-03-19T22:18:13.200Z,96327.23
2018-03-19T22:20:45.524Z,96336.24
2018-03-19T22:23:16.775Z,96328.66
2018-03-19T22:25:48.613Z,96324.72
2018-03-19T22:28:18.708Z,96329.92
2018-03-19T22:30:51.302Z,96322.94
2018-03-19T22:33:20.132Z,96321.38
2018-03-19T22:35:48.445Z,96325.25
2018-03-19T22:38:16.828Z,96325.13
2018-03-19T22:40:45.383Z,96325.07
2018-03-19T22:43:13.735Z,96323.89
2018-03-19T22:45:42.119Z,96322.34
2018-03-19T22:48:10.475Z,96317.33
2018-03-19T22:50:42.638Z,96317.45
2018-03-19T22:53:11.032Z,96323.36
2018-03-19T22:55:39.368Z,96320.44
2018-03-19T22:58:09.550Z,96315.84
2018-03-19T23:00:38.048Z,96324.10
2018-03-19T23:03:07.230Z,96315.34
2018-03-19T23:05:36.624Z,96319.52
2018-03-19T23:08:05.018Z,96318.70
2018-03-19T23:10:33.369Z,96320.97
2018-03-19T23:13:01.818Z,96319.53
2018-03-19T23:15:30.152Z,96319.18
2018-03-19T23:17:59.494Z,96321.23
2018-03-19T23:20:27.977Z,96312.67
2018-03-19T23:22:56.462Z,96315.66
2018-03-19T23:25:24.973Z,96313.17
2018-03-19T23:27:53.297Z,96317.83
2018-03-19T23:30:22.764Z,96321.17
2018-03-19T23:32:51.096Z,96322.93
2018-03-19T23:35:19.540Z,96324.61
2018-03-19T23:37:47.992Z,96321.27
2018-03-19T23:40:16.310Z,96327.02
2018-03-19T23:42:44.715Z,96327.44
2018-03-19T23:45:13.016Z,96327.44
2018-03-19T23:47:41.372Z,96327.44
2018-03-19T23:50:09.868Z,96326.22
2018-03-19T23:52:38.179Z,96325.41
2018-03-19T23:55:08.164Z,96322.50
2018-03-19T23:57:36.549Z,96326.66
